Flight Track Log - Related Links

Times and Time Zones

All times are in EDT time to prevent confusion due to time zone crossing. See the N173AA flight status page for this flight to view local times or setup timezone preferences in your user account.

Time Position Orientation Groundspeed Altitude Reporting Facility
EDT Latitude Longitude Course Direction KTS MPH feet Rate Location/Type
Sun 10:46:59 PM 28.3167 -81.4833 291° West 160 184 1,900  Level Orlando TRACON
Sun 10:47:47 PM 28.3333 -81.5333 291° West 166 191 2,300 765 Climbing Orlando TRACON
Sun 10:48:41 PM 28.3333 -81.5667 270° West 161 185 3,200 1,361 Climbing Orlando TRACON
Sun 10:49:46 PM 28.3833 -81.6167 319° Northwest 203 234 5,000 1,714 Climbing Orlando TRACON
Sun 10:50:47 PM 28.4333 -81.6000 16° North 220 253 6,800 1,774 Climbing Orlando TRACON
Sun 10:51:41 PM 28.5000 -81.5833 12° North 231 266 8,400 1,610 Climbing Orlando TRACON
Sun 10:53:31 PM 28.6106 -81.5683 North 250 288 11,200 1,518 Climbing Jacksonville Center
Sun 10:54:31 PM 28.6772 -81.5581 North 250 288 12,700 1,600 Climbing Jacksonville Center
Sun 10:55:31 PM 28.7483 -81.5617 357° North 250 288 14,400 1,700 Climbing Jacksonville Center
Sun 10:56:31 PM 28.8172 -81.5608 North 250 288 16,100 1,700 Climbing Jacksonville Center
Sun 10:57:31 PM 28.8900 -81.5597 North 255 293 17,800 1,700 Climbing Jacksonville Center
Sun 10:58:31 PM 28.9589 -81.5614 359° North 249 287 19,500 1,650 Climbing Jacksonville Center
Sun 10:59:31 PM 29.0281 -81.5650 357° North 249 287 21,100 1,250 Climbing Jacksonville Center
Sun 11:00:31 PM 29.0969 -81.5736 354° North 249 287 22,000 900 Climbing Jacksonville Center
Sun 11:01:31 PM 29.1742 -81.5822 354° North 260 299 22,900 1,050 Climbing Jacksonville Center
Sun 11:02:31 PM 29.2578 -81.5953 352° North 265 305 24,100 1,050 Climbing Jacksonville Center
Sun 11:03:31 PM 29.3372 -81.6061 353° North 277 319 25,000 450 Climbing Jacksonville Center
Sun 11:04:31 PM 29.4250 -81.6194 352° North 293 337 25,000  Level Jacksonville Center
Sun 11:05:31 PM 29.5192 -81.6325 353° North 319 367 25,000  Level Jacksonville Center
Sun 11:06:31 PM 29.6172 -81.6242 North 336 387 25,000 350 Level Jacksonville Center
Sun 11:07:31 PM 29.7150 -81.5989 13° North 353 406 25,700 800 Climbing Jacksonville Center
Sun 11:08:31 PM 29.8067 -81.5808 10° North 348 400 26,600 650 Climbing Jacksonville Center
Sun 11:09:31 PM 29.9028 -81.5700 North 343 395 27,000 200 Climbing Jacksonville Center
Sun 11:10:31 PM 30.0006 -81.5542 North 343 395 27,000  Level Jacksonville Center
Sun 11:11:31 PM 30.1006 -81.5408 North 354 407 27,000  Level Jacksonville Center
Sun 11:12:31 PM 30.2050 -81.5275 North 359 413 27,000 250 Level Jacksonville Center
Sun 11:13:31 PM 30.3050 -81.5117 North 365 420 27,500 800 Climbing Jacksonville Center
Sun 11:14:31 PM 30.4031 -81.4981 North 365 420 28,600 750 Climbing Jacksonville Center
Sun 11:15:31 PM 30.4967 -81.4847 North 351 404 29,000 200 Climbing Jacksonville Center
Sun 11:16:31 PM 30.5864 -81.4808 North 346 398 29,000  Level Jacksonville Center
Sun 11:17:31 PM 30.6867 -81.4819 359° North 351 404 29,000  Level Jacksonville Center
Sun 11:18:31 PM 30.7911 -81.4706 North 359 413 29,000 250 Level Jacksonville Center
Sun 11:19:31 PM 30.8953 -81.4642 North 365 420 29,500 550 Climbing Jacksonville Center
Sun 11:20:31 PM 30.9956 -81.4556 North 365 420 30,100 650 Climbing Jacksonville Center
Sun 11:21:31 PM 31.0956 -81.4489 North 365 420 30,800 450 Climbing Jacksonville Center
Sun 11:22:31 PM 31.1978 -81.4403 North 360 414 31,000 750 Climbing Jacksonville Center
Sun 11:23:31 PM 31.2936 -81.4289 North 359 413 32,300 1,100 Climbing Jacksonville Center
Sun 11:24:31 PM 31.3914 -81.3933 17° North 335 386 33,200 800 Climbing Jacksonville Center
Sun 11:25:31 PM 31.4831 -81.3675 14° North 330 380 33,900 650 Climbing Jacksonville Center
Sun 11:26:31 PM 31.5575 -81.3200 29° Northeast 335 386 34,500 550 Climbing Jacksonville Center
Sun 11:27:31 PM 31.6422 -81.2453 37° Northeast 341 392 35,000 250 Climbing Jacksonville Center
Sun 11:28:31 PM 31.7208 -81.1831 34° Northeast 355 409 35,000  Level Jacksonville Center
Sun 11:29:31 PM 31.8114 -81.1031 37° Northeast 367 422 35,000  Level Jacksonville Center
Sun 11:30:31 PM 31.8894 -81.0158 43° Northeast 378 435 35,000  Level Jacksonville Center
Sun 11:31:31 PM 31.9656 -80.9408 40° Northeast 384 442 35,000  Level Jacksonville Center
Sun 11:32:31 PM 32.0561 -80.8483 41° Northeast 391 450 35,000  Level Jacksonville Center
Sun 11:33:31 PM 32.1342 -80.7706 40° Northeast 396 456 35,000  Level Jacksonville Center
Sun 11:34:31 PM 32.2203 -80.6850 40° Northeast 401 461 35,000  Level Jacksonville Center
Sun 11:35:31 PM 32.3067 -80.6017 39° Northeast 401 461 35,000  Level Jacksonville Center
Sun 11:36:31 PM 32.3906 -80.5111 42° Northeast 401 461 35,000  Level Jacksonville Center
Sun 11:37:31 PM 32.4764 -80.4225 41° Northeast 406 467 35,000  Level Jacksonville Center
Sun 11:38:31 PM 32.5644 -80.3314 41° Northeast 406 467 35,000  Level Jacksonville Center
Sun 11:39:31 PM 32.6436 -80.2281 48° Northeast 406 467 35,000  Level Jacksonville Center
Sun 11:40:31 PM 32.7103 -80.1200 54° Northeast 406 467 35,000  Level Jacksonville Center
Sun 11:41:31 PM 32.7831 -80.0092 52° Northeast 416 479 35,000  Level Jacksonville Center
Sun 11:42:31 PM 32.8575 -79.9003 51° Northeast 421 484 35,000  Level Jacksonville Center
Sun 11:43:31 PM 32.9408 -79.7986 46° Northeast 421 484 35,000  Level Jacksonville Center
Sun 11:44:31 PM 33.0303 -79.7064 41° Northeast 421 484 35,000  Level Jacksonville Center
Sun 11:45:31 PM 33.1175 -79.6089 43° Northeast 421 484 35,000  Level Jacksonville Center
Sun 11:46:31 PM 33.2047 -79.5089 44° Northeast 421 484 35,000 100 Level Jacksonville Center
Sun 11:47:31 PM 33.2875 -79.4064 46° Northeast 426 490 35,200 400 Climbing Jacksonville Center
Sun 11:48:31 PM 33.3619 -79.3092 47° Northeast 410 472 35,800 -50 Climbing Jacksonville Center
Sun 11:49:31 PM 33.4406 -79.2136 45° Northeast 396 456 35,100 -750 Descending Jacksonville Center
Sun 11:50:31 PM 33.5342 -79.1328 36° Northeast 401 461 34,300 -1,292 Descending Jacksonville Center
Sun 11:53:00 PM 33.7744 -78.9417 33° Northeast 401 461 30,600 -1,407 Descending Washington Center
Sun 11:54:00 PM 33.8642 -78.8653 35° Northeast 401 461 29,400 -1,000 Descending Washington Center
Sun 11:55:00 PM 33.9558 -78.7964 32° Northeast 396 456 28,600 -700 Descending Washington Center
Sun 11:56:00 PM 34.0431 -78.7272 33° Northeast 386 444 28,000 -800 Descending Washington Center
Sun 11:57:00 PM 34.1325 -78.6578 33° Northeast 380 437 27,000 -1,050 Descending Washington Center
Sun 11:58:00 PM 34.2219 -78.5831 35° Northeast 380 437 25,900 -1,050 Descending Washington Center
Sun 11:59:00 PM 34.3117 -78.5061 35° Northeast 385 443 24,900 -1,100 Descending Washington Center
Mon 12:00:00 AM 34.4008 -78.4361 33° Northeast 385 443 23,700 -1,100 Descending Washington Center
Mon 12:01:00 AM 34.4861 -78.3636 35° Northeast 385 443 22,700 -1,100 Descending Washington Center
Mon 12:02:00 AM 34.5733 -78.2908 34° Northeast 385 443 21,500 -1,150 Descending Washington Center
Mon 12:03:00 AM 34.6583 -78.2206 34° Northeast 380 437 20,400 -1,250 Descending Washington Center
Mon 12:04:00 AM 34.7411 -78.1547 33° Northeast 374 430 19,000 -1,150 Descending Washington Center
Mon 12:05:00 AM 34.8114 -78.0914 36° Northeast 363 418 18,100 -1,100 Descending Washington Center
Mon 12:06:00 AM 34.8900 -78.0203 37° Northeast 357 411 16,800 -1,450 Descending Washington Center
Mon 12:07:00 AM 34.9642 -77.9567 35° Northeast 345 397 15,200 -1,550 Descending Washington Center
Mon 12:08:00 AM 35.0406 -77.8903 35° Northeast 345 397 13,700 -1,650 Descending Washington Center
Mon 12:09:00 AM 35.1169 -77.8292 33° Northeast 334 384 11,900 -1,600 Descending Washington Center
Mon 12:10:00 AM 35.1889 -77.7778 30° Northeast 320 368 10,500 -1,150 Descending Washington Center
Mon 12:11:00 AM 35.2544 -77.7261 33° Northeast 295 339 9,600 -1,000 Descending Washington Center
Mon 12:12:00 AM 35.3056 -77.6714 41° Northeast 268 308 8,500 -1,100 Descending Washington Center

Login

Don't have an account? Register now (free) for customized features, flight alerts, and more!